Time;durP1;ratioP1;P1;durP2;ratioP2;P2;SDS_P1;SDS_P2;PMS_P1;PMS_P2;Temp;Humidity;BMP_temperature;BMP_pressure;BME280_temperature;BME280_humidity;BME280_pressure;Samples;Min_cycle;Max_cycle;Signal;HPM_P1;HPM_P2
2022/11/25 00:00:44;;;;;;;;;;;;;;;9.49;100.00;98686.72;5043451;28;19925;-59
2022/11/25 00:03:10;;;;;;;;;;;;;;;8.89;100.00;98688.59;5044574;28;19932;-59
2022/11/25 00:05:35;;;;;;;;;;;;;;;9.00;100.00;98686.53;5043250;28;19917;-58
2022/11/25 00:08:00;;;;;;;;;;;;;;;8.87;100.00;98681.81;5043702;28;20004;-59
2022/11/25 00:10:26;;;;;;;;;;;;;;;8.81;100.00;98687.16;5043910;28;19921;-58
2022/11/25 00:12:51;;;;;;;;;;;;;;;8.88;100.00;98678.38;5043835;28;20007;-59
2022/11/25 00:15:16;;;;;;;;;;;;;;;8.56;100.00;98673.31;5044167;28;20007;-58
2022/11/25 00:17:41;;;;;;;;;;;;;;;9.19;100.00;98668.84;5042516;28;19921;-58
2022/11/25 00:20:07;;;;;;;;;;;;;;;8.97;100.00;98657.56;5041127;28;19917;-58
2022/11/25 00:22:32;;;;;;;;;;;;;;;9.24;100.00;98661.00;5055896;28;19925;-58
2022/11/25 00:24:58;;;;;;;;;;;;;;;9.16;100.00;98657.81;5043710;28;19920;-59
2022/11/25 00:27:23;;;;;;;;;;;;;;;9.10;100.00;98648.59;5041996;28;19916;-58
2022/11/25 00:29:48;;;;;;;;;;;;;;;8.87;100.00;98643.31;5042480;28;20386;-58
2022/11/25 00:32:13;;;;;;;;;;;;;;;8.98;100.00;98643.81;5044227;28;19921;-58
2022/11/25 00:34:39;;;;;;;;;;;;;;;9.13;100.00;98638.19;5040281;28;20707;-58
2022/11/25 00:37:04;;;;;;;;;;;;;;;9.23;100.00;98630.19;5041864;28;20007;-59
2022/11/25 00:39:29;;;;;;;;;;;;;;;9.26;100.00;98632.66;5040901;28;19917;-59
2022/11/25 00:44:39;;;;;;;;;;;;;;;9.04;100.00;98623.09;5042646;28;19928;-59
2022/11/25 00:47:13;;;;;;;;;;;;;;;8.89;100.00;98621.00;5043059;28;19921;-59
2022/11/25 00:49:39;;;;;;;;;;;;;;;9.09;100.00;98631.47;5056951;28;19949;-59
2022/11/25 00:52:04;;;;;;;;;;;;;;;8.80;100.00;98632.38;5044723;28;20357;-59
2022/11/25 00:54:30;;;;;;;;;;;;;;;8.84;100.00;98626.28;5041361;28;19922;-59
2022/11/25 00:56:55;;;;;;;;;;;;;;;9.30;100.00;98645.34;5055724;28;19921;-59
2022/11/25 00:59:20;;;;;;;;;;;;;;;9.05;100.00;98639.31;5040748;28;20441;-59
2022/11/25 01:01:46;;;;;;;;;;;;;;;9.18;100.00;98646.59;5041413;28;19960;-59
2022/11/25 01:04:11;;;;;;;;;;;;;;;8.79;100.00;98644.38;5057278;28;20450;-59
2022/11/25 01:06:37;;;;;;;;;;;;;;;9.15;100.00;98641.56;5056225;28;20023;-59
2022/11/25 01:09:04;;;;;;;;;;;;;;;9.18;100.00;98651.72;5041360;28;19928;-59
2022/11/25 01:11:29;;;;;;;;;;;;;;;9.18;100.00;98658.59;5043266;28;19927;-58
2022/11/25 01:13:55;;;;;;;;;;;;;;;9.14;100.00;98652.72;5042209;28;19920;-59
2022/11/25 01:16:20;;;;;;;;;;;;;;;8.95;100.00;98654.19;5041826;28;20016;-59
2022/11/25 01:18:46;;;;;;;;;;;;;;;9.74;100.00;98655.91;5040568;28;19928;-59
2022/11/25 01:21:11;;;;;;;;;;;;;;;9.42;100.00;98642.41;5040977;28;19928;-59
2022/11/25 01:23:37;;;;;;;;;;;;;;;9.43;100.00;98636.34;5041594;28;19921;-59
2022/11/25 01:26:03;;;;;;;;;;;;;;;9.13;100.00;98645.91;5051786;28;19936;-59
2022/11/25 01:28:28;;;;;;;;;;;;;;;9.10;100.00;98652.84;5040701;28;19958;-59
2022/11/25 01:30:59;;;;;;;;;;;;;;;9.10;100.00;98643.44;5041224;28;19990;-59
2022/11/25 01:33:25;;;;;;;;;;;;;;;9.25;100.00;98646.41;5041890;28;19955;-59
2022/11/25 01:35:50;;;;;;;;;;;;;;;9.51;100.00;98654.13;5037437;28;19974;-59
2022/11/25 01:38:15;;;;;;;;;;;;;;;9.52;100.00;98649.81;5042420;28;19931;-59
2022/11/25 01:40:40;;;;;;;;;;;;;;;9.72;100.00;98647.41;5041767;28;20460;-58
2022/11/25 01:43:09;;;;;;;;;;;;;;;9.43;100.00;98650.94;5040887;28;20271;-59
2022/11/25 01:45:35;;;;;;;;;;;;;;;9.54;100.00;98648.84;5041433;28;19923;-59
2022/11/25 01:48:11;;;;;;;;;;;;;;;9.58;100.00;98655.59;5040978;28;20966;-58
2022/11/25 01:50:37;;;;;;;;;;;;;;;9.58;100.00;98647.88;5039655;28;19920;-59
2022/11/25 01:53:02;;;;;;;;;;;;;;;9.83;100.00;98654.75;5042255;28;19959;-59
2022/11/25 01:55:28;;;;;;;;;;;;;;;9.69;100.00;98651.78;5039994;28;19917;-59
2022/11/25 01:57:54;;;;;;;;;;;;;;;9.79;100.00;98653.19;5040063;28;20015;-58
2022/11/25 02:00:19;;;;;;;;;;;;;;;9.36;100.00;98650.31;5054557;28;19920;-59
2022/11/25 02:02:45;;;;;;;;;;;;;;;9.45;100.00;98663.75;5040594;28;19924;-59
2022/11/25 02:05:11;;;;;;;;;;;;;;;9.52;100.00;98654.94;5042130;28;19926;-59
2022/11/25 02:07:38;;;;;;;;;;;;;;;10.08;100.00;98646.16;5041925;28;19974;-58
2022/11/25 02:10:05;;;;;;;;;;;;;;;9.50;100.00;98646.44;5041541;28;19924;-59
2022/11/25 02:12:30;;;;;;;;;;;;;;;9.34;100.00;98651.25;5039908;28;20518;-59
2022/11/25 02:14:55;;;;;;;;;;;;;;;9.88;100.00;98646.88;5040630;28;19928;-59
2022/11/25 02:17:21;;;;;;;;;;;;;;;9.67;100.00;98640.72;5053923;28;20393;-59
2022/11/25 02:20:00;;;;;;;;;;;;;;;9.40;100.00;98635.63;5037971;28;19920;-59
2022/11/25 02:22:31;;;;;;;;;;;;;;;10.18;100.00;98640.63;5039882;28;20428;-59
2022/11/25 02:24:57;;;;;;;;;;;;;;;9.76;100.00;98632.69;5041049;28;19978;-59
2022/11/25 02:27:22;;;;;;;;;;;;;;;10.13;100.00;98641.72;5040454;28;19920;-59
2022/11/25 02:29:47;;;;;;;;;;;;;;;9.99;100.00;98635.31;5040795;28;19970;-59
2022/11/25 02:32:13;;;;;;;;;;;;;;;9.72;100.00;98642.25;5041243;28;20051;-59
2022/11/25 02:34:47;;;;;;;;;;;;;;;9.66;100.00;98639.88;5039845;28;19952;-59
2022/11/25 02:37:12;;;;;;;;;;;;;;;9.74;100.00;98650.75;5040927;28;19972;-59
2022/11/25 02:39:38;;;;;;;;;;;;;;;9.86;100.00;98643.53;5039618;28;20012;-59
2022/11/25 02:42:03;;;;;;;;;;;;;;;9.51;100.00;98637.81;5039887;28;19931;-59
2022/11/25 02:44:29;;;;;;;;;;;;;;;10.16;100.00;98641.59;5053651;28;19916;-59
2022/11/25 02:46:54;;;;;;;;;;;;;;;10.40;100.00;98640.72;5042994;28;20493;-59
2022/11/25 02:49:19;;;;;;;;;;;;;;;9.86;100.00;98634.06;5040374;28;19935;-59
2022/11/25 02:51:44;;;;;;;;;;;;;;;9.88;100.00;98627.13;5040603;28;19928;-59
2022/11/25 02:54:10;;;;;;;;;;;;;;;9.89;100.00;98626.22;5041513;28;20900;-59
2022/11/25 02:56:36;;;;;;;;;;;;;;;10.03;100.00;98630.88;5039702;28;19920;-59
2022/11/25 02:59:01;;;;;;;;;;;;;;;10.11;100.00;98633.19;5039888;28;19921;-59
2022/11/25 03:01:27;;;;;;;;;;;;;;;9.92;100.00;98627.84;5039804;28;19927;-58
2022/11/25 03:03:52;;;;;;;;;;;;;;;10.04;100.00;98627.44;5040375;28;19921;-59
2022/11/25 03:06:17;;;;;;;;;;;;;;;10.17;100.00;98633.81;5040534;28;19927;-59
2022/11/25 03:08:42;;;;;;;;;;;;;;;10.02;100.00;98631.78;5039426;28;20396;-59
2022/11/25 03:11:08;;;;;;;;;;;;;;;10.23;100.00;98637.88;5041669;28;19916;-59
2022/11/25 03:13:33;;;;;;;;;;;;;;;9.87;100.00;98640.88;5039083;28;19920;-59
2022/11/25 03:15:58;;;;;;;;;;;;;;;10.40;100.00;98642.44;5039785;28;19917;-59
2022/11/25 03:18:23;;;;;;;;;;;;;;;10.23;100.00;98637.88;5039350;28;19916;-59
2022/11/25 03:20:52;;;;;;;;;;;;;;;9.74;100.00;98631.91;5040048;28;19925;-58
2022/11/25 03:23:17;;;;;;;;;;;;;;;9.85;100.00;98642.66;5040178;28;19927;-58
2022/11/25 03:25:43;;;;;;;;;;;;;;;9.86;100.00;98646.91;5039687;28;19921;-59
2022/11/25 03:28:08;;;;;;;;;;;;;;;9.69;100.00;98646.66;5039146;28;20754;-59
2022/11/25 03:30:33;;;;;;;;;;;;;;;10.01;100.00;98654.09;5039238;28;20404;-59
2022/11/25 03:32:58;;;;;;;;;;;;;;;9.88;100.00;98645.13;5040446;28;20362;-59
2022/11/25 03:35:24;;;;;;;;;;;;;;;9.94;100.00;98655.19;5037606;28;20289;-59
2022/11/25 03:37:49;;;;;;;;;;;;;;;10.28;100.00;98648.84;5039370;28;20255;-58
2022/11/25 03:40:14;;;;;;;;;;;;;;;9.79;100.00;98635.19;5038915;28;19925;-58
2022/11/25 03:42:40;;;;;;;;;;;;;;;10.02;100.00;98644.66;5040023;28;19927;-59
2022/11/25 03:45:06;;;;;;;;;;;;;;;9.85;100.00;98642.66;5039980;28;20374;-59
2022/11/25 03:47:31;;;;;;;;;;;;;;;10.21;100.00;98642.25;5039871;28;19916;-58
2022/11/25 03:49:56;;;;;;;;;;;;;;;9.93;100.00;98648.38;5038121;28;19974;-59
2022/11/25 03:52:21;;;;;;;;;;;;;;;10.58;100.00;98652.06;5038335;28;19962;-59
2022/11/25 03:54:47;;;;;;;;;;;;;;;10.29;100.00;98645.44;5037550;28;20141;-59
2022/11/25 03:57:12;;;;;;;;;;;;;;;10.54;100.00;98653.09;5039013;28;20011;-58
2022/11/25 03:59:37;;;;;;;;;;;;;;;10.08;100.00;98641.00;5038291;28;19927;-58
2022/11/25 04:02:02;;;;;;;;;;;;;;;10.31;100.00;98640.22;5038077;28;20011;-58
2022/11/25 04:04:28;;;;;;;;;;;;;;;10.27;100.00;98631.75;5038557;28;20035;-59
2022/11/25 04:06:53;;;;;;;;;;;;;;;10.19;100.00;98641.47;5038328;28;19921;-59
2022/11/25 04:09:18;;;;;;;;;;;;;;;10.83;100.00;98628.81;5037926;28;19921;-58
2022/11/25 04:14:28;;;;;;;;;;;;;;;10.13;100.00;98611.66;5037092;28;19928;-58
2022/11/25 04:16:53;;;;;;;;;;;;;;;10.19;100.00;98626.03;5038109;28;19921;-58
2022/11/25 04:19:19;;;;;;;;;;;;;;;10.18;100.00;98629.50;5037366;28;19970;-58
2022/11/25 04:21:44;;;;;;;;;;;;;;;10.07;100.00;98641.91;5037380;28;19925;-58
2022/11/25 04:24:09;;;;;;;;;;;;;;;10.57;100.00;98641.81;5039480;28;20213;-59
2022/11/25 04:26:34;;;;;;;;;;;;;;;10.27;100.00;98644.63;5038340;28;19928;-58
2022/11/25 04:28:59;;;;;;;;;;;;;;;10.21;100.00;98639.69;5039765;28;19925;-58
2022/11/25 04:31:25;;;;;;;;;;;;;;;9.85;100.00;98632.38;5039689;28;19947;-58
2022/11/25 04:33:50;;;;;;;;;;;;;;;10.14;100.00;98638.22;5039556;28;20435;-58
2022/11/25 04:36:15;;;;;;;;;;;;;;;10.11;100.00;98638.34;5036342;28;19917;-58
2022/11/25 04:38:40;;;;;;;;;;;;;;;10.08;100.00;98636.72;5036318;28;19964;-58
2022/11/25 04:41:06;;;;;;;;;;;;;;;10.21;100.00;98634.53;5040541;28;19972;-58
2022/11/25 04:43:31;;;;;;;;;;;;;;;10.09;100.00;98640.97;5040767;28;19917;-58
2022/11/25 04:45:56;;;;;;;;;;;;;;;10.26;100.00;98648.06;5042302;28;19919;-58
2022/11/25 04:48:22;;;;;;;;;;;;;;;10.51;100.00;98635.16;5042555;28;19974;-58
2022/11/25 04:50:47;;;;;;;;;;;;;;;10.25;100.00;98630.97;5042526;28;19917;-58
2022/11/25 04:53:12;;;;;;;;;;;;;;;10.08;100.00;98647.03;5044291;28;19921;-58
2022/11/25 04:55:37;;;;;;;;;;;;;;;10.37;100.00;98651.13;5042792;28;20389;-58
2022/11/25 04:58:03;;;;;;;;;;;;;;;9.87;100.00;98640.88;5043227;28;20374;-58
2022/11/25 05:00:28;;;;;;;;;;;;;;;10.53;100.00;98650.56;5042011;28;20068;-58
2022/11/25 05:02:53;;;;;;;;;;;;;;;10.17;100.00;98643.25;5043595;28;20030;-58
2022/11/25 05:05:18;;;;;;;;;;;;;;;10.19;100.00;98651.75;5043533;28;19924;-58
2022/11/25 05:07:44;;;;;;;;;;;;;;;10.43;100.00;98661.19;5041788;28;19920;-58
2022/11/25 05:10:09;;;;;;;;;;;;;;;10.02;100.00;98660.91;5042762;28;19968;-58
2022/11/25 05:12:34;;;;;;;;;;;;;;;10.56;100.00;98660.72;5043730;28;20011;-58
2022/11/25 05:15:00;;;;;;;;;;;;;;;10.97;100.00;98668.63;5042830;28;19943;-58
2022/11/25 05:17:28;;;;;;;;;;;;;;;11.21;100.00;98662.50;5041938;28;19990;-58
2022/11/25 05:19:53;;;;;;;;;;;;;;;11.39;100.00;98660.09;5040074;28;19932;-58
2022/11/25 05:22:28;;;;;;;;;;;;;;;11.48;100.00;98650.22;5040647;28;19936;-58
2022/11/25 05:24:53;;;;;;;;;;;;;;;11.51;100.00;98651.84;5041746;28;19920;-58
2022/11/25 05:27:18;;;;;;;;;;;;;;;11.22;100.00;98641.00;5042528;28;20560;-58
2022/11/25 05:29:44;;;;;;;;;;;;;;;10.87;100.00;98640.63;5040716;28;20160;-58
2022/11/25 05:32:09;;;;;;;;;;;;;;;11.56;100.00;98655.06;5055840;28;19943;-58
2022/11/25 05:34:35;;;;;;;;;;;;;;;11.09;100.00;98640.63;5035242;28;20302;-58
2022/11/25 05:37:00;;;;;;;;;;;;;;;11.39;100.00;98652.34;5040618;28;20328;-60
2022/11/25 05:39:25;;;;;;;;;;;;;;;10.63;100.00;98644.19;5054625;28;19931;-59
2022/11/25 05:41:50;;;;;;;;;;;;;;;10.80;100.00;98664.13;5041070;28;21061;-58
2022/11/25 05:44:16;;;;;;;;;;;;;;;10.66;100.00;98664.66;5041829;28;20005;-58
2022/11/25 05:46:43;;;;;;;;;;;;;;;10.92;100.00;98678.28;5042194;28;19921;-58
2022/11/25 05:49:08;;;;;;;;;;;;;;;10.36;100.00;98695.78;5041067;28;20305;-58
2022/11/25 05:51:34;;;;;;;;;;;;;;;10.09;100.00;98701.88;5040795;28;19913;-59
2022/11/25 05:53:59;;;;;;;;;;;;;;;10.47;100.00;98710.84;5039359;28;20433;-59
2022/11/25 05:56:24;;;;;;;;;;;;;;;10.49;100.00;98700.47;5039093;28;19916;-59
2022/11/25 05:58:50;;;;;;;;;;;;;;;10.72;100.00;98707.34;5036435;28;20376;-59
2022/11/25 06:01:15;;;;;;;;;;;;;;;10.76;100.00;98720.06;5040611;28;20373;-59
2022/11/25 06:03:41;;;;;;;;;;;;;;;10.51;100.00;98712.41;5039440;28;19931;-59
2022/11/25 06:06:06;;;;;;;;;;;;;;;11.12;100.00;98711.84;5039859;28;19991;-59
2022/11/25 06:08:32;;;;;;;;;;;;;;;10.76;100.00;98709.75;5037720;28;19956;-58
2022/11/25 06:10:57;;;;;;;;;;;;;;;10.64;100.00;98720.53;5041365;28;20618;-59
2022/11/25 06:13:23;;;;;;;;;;;;;;;11.04;100.00;98719.88;5040952;28;19921;-59
2022/11/25 06:15:48;;;;;;;;;;;;;;;10.81;100.00;98718.16;5039728;28;19924;-59
2022/11/25 06:18:15;;;;;;;;;;;;;;;10.68;100.00;98722.09;5039754;28;19916;-58
2022/11/25 06:20:40;;;;;;;;;;;;;;;10.69;100.00;98726.34;5053339;28;19920;-59
2022/11/25 06:23:06;;;;;;;;;;;;;;;10.82;100.00;98747.34;5041355;28;19928;-58
2022/11/25 06:25:32;;;;;;;;;;;;;;;10.30;100.00;98734.59;5040545;28;19920;-59
2022/11/25 06:27:58;;;;;;;;;;;;;;;9.95;100.00;98741.78;5041041;28;20290;-59
2022/11/25 06:30:24;;;;;;;;;;;;;;;10.75;100.00;98761.34;5039580;28;19924;-59
2022/11/25 06:32:50;;;;;;;;;;;;;;;10.38;100.00;98763.50;5041115;28;19921;-59
2022/11/25 06:35:15;;;;;;;;;;;;;;;11.00;100.00;98769.00;5038370;28;19975;-59
2022/11/25 06:37:41;;;;;;;;;;;;;;;10.19;100.00;98759.84;5039899;28;19924;-59
2022/11/25 06:40:06;;;;;;;;;;;;;;;11.00;100.00;98769.00;5039324;28;20023;-59
2022/11/25 06:42:31;;;;;;;;;;;;;;;11.03;100.00;98763.72;5037505;28;20024;-59
2022/11/25 06:44:57;;;;;;;;;;;;;;;10.70;100.00;98763.22;5040976;28;20433;-59
2022/11/25 06:47:22;;;;;;;;;;;;;;;10.55;100.00;98765.47;5038812;28;19920;-59
2022/11/25 06:49:47;;;;;;;;;;;;;;;10.88;100.00;98765.16;5038983;28;19916;-59
2022/11/25 06:52:12;;;;;;;;;;;;;;;10.40;100.00;98768.56;5039816;28;19943;-59
2022/11/25 06:54:40;;;;;;;;;;;;;;;10.53;100.00;98774.16;5039831;28;19916;-59
2022/11/25 06:57:08;;;;;;;;;;;;;;;10.63;100.00;98770.38;5040133;28;20005;-59
2022/11/25 06:59:33;;;;;;;;;;;;;;;10.49;100.00;98772.56;5038744;28;19931;-59
2022/11/25 07:01:58;;;;;;;;;;;;;;;10.57;100.00;98780.88;5038223;28;19924;-59
2022/11/25 07:04:24;;;;;;;;;;;;;;;10.79;100.00;98786.09;5039109;28;19921;-59
2022/11/25 07:06:49;;;;;;;;;;;;;;;10.80;100.00;98782.63;5040331;28;19920;-59
2022/11/25 07:09:14;;;;;;;;;;;;;;;10.54;100.00;98786.13;5036911;28;19921;-59
2022/11/25 07:11:40;;;;;;;;;;;;;;;10.66;100.00;98796.00;5040068;28;19925;-59
2022/11/25 07:14:06;;;;;;;;;;;;;;;11.20;100.00;98797.44;5039467;28;19961;-59
2022/11/25 07:16:31;;;;;;;;;;;;;;;10.93;100.00;98788.16;5054288;28;20003;-59
2022/11/25 07:19:00;;;;;;;;;;;;;;;11.34;100.00;98793.50;5038347;28;19921;-59
2022/11/25 07:21:26;;;;;;;;;;;;;;;11.46;100.00;98782.72;5038584;28;19946;-59
2022/11/25 07:23:51;;;;;;;;;;;;;;;10.84;100.00;98786.78;5039605;28;19912;-59
2022/11/25 07:26:21;;;;;;;;;;;;;;;11.09;100.00;98794.44;5039879;28;19971;-59
2022/11/25 07:28:46;;;;;;;;;;;;;;;11.19;100.00;98810.38;5038217;28;20429;-60
2022/11/25 07:31:16;;;;;;;;;;;;;;;11.19;100.00;98800.91;5051833;28;19920;-59
2022/11/25 07:33:42;;;;;;;;;;;;;;;11.09;100.00;98815.06;5036665;28;19921;-59
2022/11/25 07:36:08;;;;;;;;;;;;;;;11.29;100.00;98820.31;5036104;28;19927;-59
2022/11/25 07:38:33;;;;;;;;;;;;;;;11.44;100.00;98820.59;5037298;28;19916;-59
2022/11/25 07:41:08;;;;;;;;;;;;;;;11.43;100.00;98829.25;5052744;28;19923;-59
2022/11/25 07:43:33;;;;;;;;;;;;;;;11.45;100.00;98823.13;5036139;28;20546;-59
2022/11/25 07:46:11;;;;;;;;;;;;;;;11.82;100.00;98829.44;5039788;28;19921;-59
2022/11/25 07:48:37;;;;;;;;;;;;;;;11.67;100.00;98833.44;5038291;28;19921;-59
2022/11/25 07:51:02;;;;;;;;;;;;;;;12.08;100.00;98830.97;5039440;28;20416;-59
2022/11/25 07:53:27;;;;;;;;;;;;;;;11.73;100.00;98822.06;5038262;28;19921;-60
2022/11/25 07:55:52;;;;;;;;;;;;;;;11.92;100.00;98822.19;5038961;28;19920;-60
2022/11/25 07:58:18;;;;;;;;;;;;;;;11.86;100.00;98823.25;5040052;28;19927;-60
2022/11/25 08:00:43;;;;;;;;;;;;;;;11.74;100.00;98818.56;5038779;28;20064;-60
2022/11/25 08:03:08;;;;;;;;;;;;;;;11.94;100.00;98817.81;5038969;28;20019;-60
2022/11/25 08:05:33;;;;;;;;;;;;;;;11.76;100.00;98815.94;5038193;28;19963;-60
2022/11/25 08:07:58;;;;;;;;;;;;;;;11.57;100.00;98814.06;5038614;28;19917;-59
2022/11/25 08:10:24;;;;;;;;;;;;;;;11.89;100.00;98818.00;5038207;28;19921;-60
2022/11/25 08:12:49;;;;;;;;;;;;;;;11.46;100.00;98829.97;5039896;28;20550;-59
2022/11/25 08:15:14;;;;;;;;;;;;;;;11.48;100.00;98827.34;5038850;28;20384;-59
2022/11/25 08:17:39;;;;;;;;;;;;;;;11.80;100.00;98838.13;5040547;28;19970;-60
2022/11/25 08:20:05;;;;;;;;;;;;;;;11.88;100.00;98833.53;5040764;28;19921;-59
2022/11/25 08:22:30;;;;;;;;;;;;;;;11.76;100.00;98821.91;5044562;28;19929;-59
2022/11/25 08:24:55;;;;;;;;;;;;;;;11.82;100.00;98824.28;5041541;28;20949;-59
2022/11/25 08:27:20;;;;;;;;;;;;;;;11.82;100.00;98831.19;5041207;28;19980;-59
2022/11/25 08:29:46;;;;;;;;;;;;;;;11.87;100.00;98829.25;5042244;28;19983;-60
2022/11/25 08:32:11;;;;;;;;;;;;;;;12.26;100.00;98828.56;5042460;28;19966;-59
2022/11/25 08:34:36;;;;;;;;;;;;;;;11.58;100.00;98828.63;5041824;28;20414;-60
2022/11/25 08:37:02;;;;;;;;;;;;;;;11.71;100.00;98834.16;5041912;28;19913;-60
2022/11/25 08:39:28;;;;;;;;;;;;;;;11.80;100.00;98832.97;5041652;28;20023;-60
2022/11/25 08:41:53;;;;;;;;;;;;;;;11.67;100.00;98832.59;5041506;28;19928;-59
2022/11/25 08:44:19;;;;;;;;;;;;;;;12.15;100.00;98844.47;5040624;28;19967;-60
2022/11/25 08:46:44;;;;;;;;;;;;;;;12.21;100.00;98838.25;5043876;28;19924;-60
2022/11/25 08:49:09;;;;;;;;;;;;;;;11.97;100.00;98840.91;5046962;28;19924;-59
2022/11/25 08:51:35;;;;;;;;;;;;;;;11.77;100.00;98839.09;5043198;28;19921;-60
2022/11/25 08:54:00;;;;;;;;;;;;;;;11.62;100.00;98830.22;5045659;28;19931;-60
2022/11/25 08:56:26;;;;;;;;;;;;;;;11.69;100.00;98841.97;5042413;28;20015;-59
2022/11/25 08:58:51;;;;;;;;;;;;;;;11.58;100.00;98838.97;5041598;28;19920;-60
2022/11/25 09:01:17;;;;;;;;;;;;;;;11.39;100.00;98856.03;5040986;28;19974;-60
2022/11/25 09:03:44;;;;;;;;;;;;;;;11.55;100.00;98861.47;5041575;28;19928;-60
2022/11/25 09:06:09;;;;;;;;;;;;;;;11.53;100.00;98861.50;5041170;28;20314;-60
2022/11/25 09:08:34;;;;;;;;;;;;;;;12.02;100.00;98864.81;5039836;28;19920;-61
2022/11/25 09:11:00;;;;;;;;;;;;;;;12.04;100.00;98856.97;5042585;28;19924;-60
2022/11/25 09:13:25;;;;;;;;;;;;;;;11.96;100.00;98859.88;5040776;28;20024;-60
2022/11/25 09:15:50;;;;;;;;;;;;;;;12.04;100.00;98852.69;5040728;28;19931;-60
2022/11/25 09:18:18;;;;;;;;;;;;;;;12.08;100.00;98859.38;5041543;28;19917;-60
2022/11/25 09:20:44;;;;;;;;;;;;;;;11.95;100.00;98860.78;5041446;28;19921;-60
2022/11/25 09:23:09;;;;;;;;;;;;;;;12.33;100.00;98873.88;5041204;28;19920;-59
2022/11/25 09:25:34;;;;;;;;;;;;;;;11.65;100.00;98873.94;5042498;28;19999;-60
2022/11/25 09:28:00;;;;;;;;;;;;;;;12.42;100.00;98886.41;5041465;28;20466;-60
2022/11/25 09:30:25;;;;;;;;;;;;;;;12.65;100.00;98874.28;5041805;28;20414;-60
2022/11/25 09:32:51;;;;;;;;;;;;;;;12.66;100.00;98871.63;5041344;28;20305;-60
2022/11/25 09:35:17;;;;;;;;;;;;;;;12.64;100.00;98870.03;5037789;28;19963;-60
2022/11/25 09:37:42;;;;;;;;;;;;;;;12.94;100.00;98870.44;5040911;28;19916;-60
2022/11/25 09:40:07;;;;;;;;;;;;;;;12.42;100.00;98860.56;5041440;28;19917;-60
2022/11/25 09:48:55;;;;;;;;;;;;;;;12.13;100.00;98888.44;5019264;28;19921;-61
2022/11/25 09:51:23;;;;;;;;;;;;;;;12.55;100.00;98891.91;5036694;28;19921;-60
2022/11/25 09:53:51;;;;;;;;;;;;;;;12.39;100.00;98889.13;5032389;28;19955;-60
2022/11/25 09:56:37;;;;;;;;;;;;;;;12.42;100.00;98890.72;5041367;28;19998;-60
2022/11/25 09:59:14;;;;;;;;;;;;;;;12.81;100.00;98889.97;5040870;28;19928;-60
2022/11/25 10:01:59;;;;;;;;;;;;;;;12.97;100.00;98896.13;5040787;28;20023;-60
2022/11/25 10:04:36;;;;;;;;;;;;;;;12.99;100.00;98881.41;5040104;28;19924;-60
2022/11/25 10:07:02;;;;;;;;;;;;;;;12.94;100.00;98881.59;5040192;28;20432;-61
2022/11/25 10:09:29;;;;;;;;;;;;;;;13.09;100.00;98882.69;5038974;28;19921;-60
2022/11/25 10:11:55;;;;;;;;;;;;;;;13.39;100.00;98877.09;5042582;28;19921;-60
2022/11/25 10:14:23;;;;;;;;;;;;;;;12.62;100.00;98879.56;5040423;28;19972;-61
2022/11/25 10:16:50;;;;;;;;;;;;;;;12.72;100.00;98879.09;5042187;28;19921;-61
2022/11/25 10:19:19;;;;;;;;;;;;;;;12.51;100.00;98896.34;5041615;28;19920;-60
2022/11/25 10:21:45;;;;;;;;;;;;;;;12.91;100.00;98893.84;5041773;28;20534;-61
2022/11/25 10:24:14;;;;;;;;;;;;;;;12.97;100.00;98886.63;5039239;28;19921;-60
2022/11/25 10:26:41;;;;;;;;;;;;;;;12.80;100.00;98898.63;5041844;28;19920;-59
2022/11/25 10:29:12;;;;;;;;;;;;;;;13.46;100.00;98891.41;5039496;28;19917;-61
2022/11/25 10:31:38;;;;;;;;;;;;;;;13.28;100.00;98890.50;5040632;28;19961;-60
2022/11/25 10:34:24;;;;;;;;;;;;;;;13.44;100.00;98898.41;5040439;28;19924;-61
2022/11/25 10:36:49;;;;;;;;;;;;;;;13.23;100.00;98897.59;5039235;28;19921;-60
2022/11/25 10:39:25;;;;;;;;;;;;;;;13.34;100.00;98903.16;5038079;28;20280;-61
2022/11/25 10:41:51;;;;;;;;;;;;;;;14.16;100.00;98889.84;5038439;28;19932;-60
2022/11/25 10:44:20;;;;;;;;;;;;;;;14.12;100.00;98877.13;5039128;28;20269;-61
2022/11/25 10:47:09;;;;;;;;;;;;;;;13.65;100.00;98877.63;5041842;28;19931;-60
2022/11/25 10:49:34;;;;;;;;;;;;;;;14.19;100.00;98884.53;5012612;28;19921;-60
2022/11/25 10:51:59;;;;;;;;;;;;;;;14.41;100.00;98879.13;5040586;28;20393;-60
2022/11/25 10:54:27;;;;;;;;;;;;;;;13.72;100.00;98873.84;5040234;28;19951;-60
2022/11/25 10:57:00;;;;;;;;;;;;;;;14.00;100.00;98879.41;5022965;28;20987;-60
2022/11/25 10:59:25;;;;;;;;;;;;;;;13.72;100.00;98882.44;5038401;28;20313;-60
2022/11/25 11:01:51;;;;;;;;;;;;;;;13.60;100.00;98886.44;5039128;28;19920;-60
2022/11/25 11:04:17;;;;;;;;;;;;;;;13.49;100.00;98888.69;5039661;28;20290;-60
2022/11/25 11:06:44;;;;;;;;;;;;;;;13.99;100.00;98893.25;5040208;28;20456;-60
2022/11/25 11:09:28;;;;;;;;;;;;;;;14.19;100.00;98889.69;5038601;28;20741;-59
2022/11/25 11:11:53;;;;;;;;;;;;;;;14.20;100.00;98881.00;5040273;28;19920;-60
2022/11/25 11:14:19;;;;;;;;;;;;;;;14.30;100.00;98881.41;5039065;28;19912;-60
2022/11/25 11:16:51;;;;;;;;;;;;;;;14.48;100.00;98873.63;5039863;28;20004;-59
2022/11/25 11:19:35;;;;;;;;;;;;;;;14.23;100.00;98872.25;5039293;28;19920;-59
2022/11/25 11:22:14;;;;;;;;;;;;;;;14.02;100.00;98877.53;5037599;28;20015;-59
2022/11/25 11:24:41;;;;;;;;;;;;;;;14.55;100.00;98895.75;5038895;28;19921;-59
2022/11/25 11:27:18;;;;;;;;;;;;;;;14.70;100.00;98879.44;5039231;28;19923;-59
2022/11/25 11:29:43;;;;;;;;;;;;;;;14.02;100.00;98879.31;5038313;28;19924;-60
2022/11/25 11:32:22;;;;;;;;;;;;;;;13.30;100.00;98898.19;5039488;28;19917;-59
2022/11/25 11:34:54;;;;;;;;;;;;;;;14.29;100.00;98894.44;5035822;28;20534;-59
2022/11/25 11:37:32;;;;;;;;;;;;;;;14.25;100.00;98895.47;5038591;28;19917;-59
2022/11/25 11:40:18;;;;;;;;;;;;;;;14.09;100.00;98904.00;5037911;28;19917;-59
2022/11/25 11:43:02;;;;;;;;;;;;;;;14.08;100.00;98907.50;5038122;28;19922;-59
2022/11/25 11:45:34;;;;;;;;;;;;;;;13.94;100.00;98909.91;5039514;28;19924;-59
2022/11/25 11:48:02;;;;;;;;;;;;;;;12.98;100.00;98919.34;5054139;28;20468;-59
2022/11/25 11:50:28;;;;;;;;;;;;;;;12.82;100.00;98933.84;5038089;28;19970;-59
2022/11/25 11:53:12;;;;;;;;;;;;;;;12.94;100.00;98938.47;5041891;28;19917;-59
2022/11/25 11:55:56;;;;;;;;;;;;;;;13.02;100.00;98937.28;5042559;28;19917;-59
2022/11/25 11:58:54;;;;;;;;;;;;;;;13.22;100.00;98926.94;5057009;28;20481;-59
2022/11/25 12:01:21;;;;;;;;;;;;;;;13.89;100.00;98937.75;5040346;28;19921;-59
2022/11/25 12:03:59;;;;;;;;;;;;;;;13.56;100.00;98935.81;5041456;28;19963;-59
2022/11/25 12:06:24;;;;;;;;;;;;;;;13.90;100.00;98923.91;5041934;28;19917;-59
2022/11/25 12:08:51;;;;;;;;;;;;;;;12.85;100.00;98933.69;5050888;28;19978;-59
2022/11/25 12:11:20;;;;;;;;;;;;;;;13.64;100.00;98944.06;5041935;28;20375;-59
2022/11/25 12:13:45;;;;;;;;;;;;;;;13.19;100.00;98942.59;5041962;28;19995;-59
2022/11/25 12:16:12;;;;;;;;;;;;;;;13.13;100.00;98943.69;5042982;28;19995;-59
2022/11/25 12:18:46;;;;;;;;;;;;;;;13.12;100.00;98943.78;5040909;28;20656;-59
2022/11/25 12:21:23;;;;;;;;;;;;;;;13.55;100.00;98954.84;5043281;28;20274;-59
2022/11/25 12:24:18;;;;;;;;;;;;;;;13.15;100.00;98956.56;5042085;28;19916;-59
2022/11/25 12:26:52;;;;;;;;;;;;;;;13.46;100.00;98965.59;5033476;28;19917;-59
2022/11/25 12:29:26;;;;;;;;;;;;;;;13.20;100.00;98959.78;5043088;28;19916;-59
2022/11/25 12:31:53;;;;;;;;;;;;;;;13.44;100.00;98962.25;5043041;28;21024;-59
2022/11/25 12:34:20;;;;;;;;;;;;;;;13.26;100.00;98959.50;5042216;28;19916;-59
2022/11/25 12:36:45;;;;;;;;;;;;;;;13.70;100.00;98959.31;5041042;28;19913;-59
2022/11/25 12:39:11;;;;;;;;;;;;;;;12.96;100.00;98959.94;5040240;28;19931;-59
2022/11/25 12:41:55;;;;;;;;;;;;;;;13.48;100.00;98967.22;5057299;28;19928;-59
2022/11/25 12:44:26;;;;;;;;;;;;;;;13.53;100.00;98952.31;5041046;28;19928;-59
2022/11/25 12:46:52;;;;;;;;;;;;;;;13.12;100.00;98961.88;5043214;28;19920;-59
2022/11/25 12:49:23;;;;;;;;;;;;;;;12.70;100.00;98976.53;5041024;28;19920;-59
2022/11/25 12:52:04;;;;;;;;;;;;;;;13.50;100.00;98972.28;5041706;28;19917;-59